Time;durP1;ratioP1;P1;durP2;ratioP2;P2;SDS_P1;SDS_P2;PMS_P1;PMS_P2;Temp;Humidity;BMP_temperature;BMP_pressure;BME280_temperature;BME280_humidity;BME280_pressure;Samples;Min_cycle;Max_cycle;Signal;HPM_P1;HPM_P2
2023/04/27 00:01:05;;;;;;;6.45;3.85;;;;;;;5.92;66.91;101989.78;5110134;27;20027;-85
2023/04/27 00:03:31;;;;;;;12.40;4.55;;;;;;;5.97;65.90;101987.13;5109634;27;20411;-85
2023/04/27 00:05:56;;;;;;;4.47;3.63;;;;;;;5.99;66.99;101996.75;5106153;27;20041;-85
2023/04/27 00:08:21;;;;;;;6.45;4.07;;;;;;;6.01;68.64;101996.75;5106859;27;20402;-85
2023/04/27 00:10:47;;;;;;;5.07;3.42;;;;;;;5.93;67.05;101988.91;5106162;27;20032;-85
2023/04/27 00:13:12;;;;;;;7.40;3.72;;;;;;;5.91;66.82;101980.13;5109926;27;20027;-85
2023/04/27 00:15:37;;;;;;;6.32;4.00;;;;;;;5.92;67.65;101995.03;5105951;28;20428;-85
2023/04/27 00:18:03;;;;;;;6.85;3.50;;;;;;;5.85;66.85;101986.25;5105651;28;20437;-84
2023/04/27 00:20:28;;;;;;;5.50;3.53;;;;;;;5.83;69.73;101982.78;5109633;27;20024;-85
2023/04/27 00:22:53;;;;;;;8.15;3.80;;;;;;;5.80;67.80;101988.03;5114760;27;20488;-85
2023/04/27 00:25:18;;;;;;;6.75;4.35;;;;;;;5.72;69.27;101981.03;5110210;27;20118;-85
2023/04/27 00:27:44;;;;;;;8.27;3.80;;;;;;;5.62;68.72;101986.31;5098296;28;20399;-85
2023/04/27 00:30:09;;;;;;;7.35;4.47;;;;;;;5.55;67.96;101979.34;5110562;28;20363;-85
2023/04/27 00:32:35;;;;;;;9.25;5.07;;;;;;;5.53;68.30;101982.81;5113545;27;20040;-85
2023/04/27 00:35:00;;;;;;;5.93;3.95;;;;;;;5.50;68.32;101988.06;5110901;27;20167;-85
2023/04/27 00:37:25;;;;;;;9.18;4.63;;;;;;;5.51;67.97;101992.44;5108423;28;20212;-85
2023/04/27 00:39:50;;;;;;;7.00;4.47;;;;;;;5.47;69.23;101985.47;5108420;27;20046;-85
2023/04/27 00:42:18;;;;;;;9.25;4.88;;;;;;;5.39;70.02;101988.06;5110580;27;20753;-85
2023/04/27 00:44:44;;;;;;;8.40;4.20;;;;;;;5.28;69.45;101984.59;5104491;27;20057;-85
2023/04/27 00:47:10;;;;;;;8.70;4.20;;;;;;;5.26;71.41;101987.19;5109933;28;20106;-84
2023/04/27 00:49:36;;;;;;;8.38;4.18;;;;;;;5.21;71.53;101990.69;5107911;28;20430;-85
2023/04/27 00:52:02;;;;;;;6.82;4.57;;;;;;;5.16;69.69;101995.06;5110967;27;20036;-85
2023/04/27 00:54:28;;;;;;;10.98;4.32;;;;;;;5.15;69.78;101982.84;5103732;28;20393;-85
2023/04/27 00:56:53;;;;;;;7.35;4.43;;;;;;;5.09;69.68;101981.09;5098500;27;20030;-85
2023/04/27 00:59:19;;;;;;;6.78;3.78;;;;;;;5.16;69.26;101993.31;5099751;28;20032;-85
2023/04/27 01:01:48;;;;;;;8.57;4.40;;;;;;;5.10;69.05;101980.22;5107875;28;20480;-85
2023/04/27 01:04:13;;;;;;;6.35;3.88;;;;;;;5.10;69.48;101986.31;5102685;28;20035;-85
2023/04/27 01:06:38;;;;;;;6.60;4.28;;;;;;;5.04;68.66;101978.47;5108569;28;20023;-85
2023/04/27 01:09:05;;;;;;;7.03;4.10;;;;;;;5.01;69.07;101975.84;5107030;28;20036;-85
2023/04/27 01:11:34;;;;;;;6.10;3.90;;;;;;;5.05;69.10;101982.81;5103555;28;20027;-85
2023/04/27 01:14:03;;;;;;;6.50;4.30;;;;;;;5.08;69.11;101981.94;5101953;28;20046;-85
2023/04/27 01:16:30;;;;;;;7.07;3.97;;;;;;;4.95;70.80;101980.22;5104863;28;20035;-85
2023/04/27 01:18:56;;;;;;;7.22;3.75;;;;;;;4.92;69.97;101980.19;5099425;28;20047;-85
2023/04/27 01:21:21;;;;;;;7.97;3.92;;;;;;;4.92;69.96;101988.91;5110915;28;20550;-85
2023/04/27 01:23:46;;;;;;;6.05;4.00;;;;;;;4.81;70.67;101978.44;5110827;27;20035;-86
2023/04/27 01:26:15;;;;;;;10.95;4.32;;;;;;;4.87;70.75;101993.28;5104989;28;20543;-85
2023/04/27 01:28:40;;;;;;;6.57;3.90;;;;;;;4.73;70.71;101995.88;5106303;28;20019;-85
2023/04/27 01:31:06;;;;;;;8.70;3.80;;;;;;;4.58;71.10;101995.84;5109833;28;20039;-85
2023/04/27 01:33:31;;;;;;;7.47;4.30;;;;;;;4.51;71.11;101994.06;5110956;28;20564;-85
2023/04/27 01:35:56;;;;;;;8.10;4.30;;;;;;;4.26;71.63;101991.34;5107303;28;20038;-85
2023/04/27 01:38:23;;;;;;;8.52;4.93;;;;;;;4.13;72.42;101991.28;5108578;28;20035;-85
2023/04/27 01:40:48;;;;;;;14.60;4.88;;;;;;;4.11;72.81;101986.06;5106771;28;20124;-84
2023/04/27 01:43:14;;;;;;;7.53;4.55;;;;;;;4.00;72.36;101991.22;5107077;28;20144;-85
2023/04/27 01:45:39;;;;;;;9.52;5.10;;;;;;;3.89;72.85;101985.06;5100627;28;20025;-84
2023/04/27 01:48:05;;;;;;;7.88;4.35;;;;;;;3.97;73.02;101980.75;5109210;28;20028;-85
2023/04/27 01:50:30;;;;;;;9.55;4.85;;;;;;;4.06;72.48;101983.41;5099875;28;20020;-84
2023/04/27 01:52:55;;;;;;;6.07;3.85;;;;;;;4.14;74.00;101977.31;5109032;28;20039;-85
2023/04/27 01:55:21;;;;;;;11.15;4.30;;;;;;;4.14;74.80;101986.03;5098934;28;20374;-85
2023/04/27 01:57:46;;;;;;;7.13;4.07;;;;;;;4.15;73.18;101979.06;5105113;28;20024;-85
2023/04/27 02:00:12;;;;;;;7.80;4.53;;;;;;;4.17;71.57;101975.59;5114176;28;20408;-85
2023/04/27 02:02:37;;;;;;;6.38;4.03;;;;;;;4.12;72.84;101963.38;5111526;28;20395;-85
2023/04/27 02:05:03;;;;;;;5.47;3.90;;;;;;;4.13;71.31;101975.59;5111027;28;20023;-84
2023/04/27 02:07:28;;;;;;;9.48;4.80;;;;;;;4.15;73.44;101976.44;5112206;28;20016;-85
2023/04/27 02:09:53;;;;;;;6.90;4.30;;;;;;;4.08;72.22;101965.97;5107741;28;20031;-85
2023/04/27 02:12:19;;;;;;;8.93;4.35;;;;;;;4.03;72.00;101978.16;5115917;27;20406;-85
2023/04/27 02:14:44;;;;;;;5.88;4.15;;;;;;;3.94;72.07;101972.00;5109276;27;20020;-85
2023/04/27 02:17:09;;;;;;;4.88;3.70;;;;;;;3.99;73.70;101972.91;5108703;27;20024;-85
2023/04/27 02:19:35;;;;;;;7.72;4.53;;;;;;;4.00;72.09;101974.63;5107007;27;20032;-85
2023/04/27 02:22:00;;;;;;;8.13;4.88;;;;;;;3.96;72.44;101965.03;5113442;28;20418;-85
2023/04/27 02:24:25;;;;;;;6.85;4.18;;;;;;;3.92;72.00;101966.78;5106311;27;20023;-85
2023/04/27 02:26:51;;;;;;;9.18;4.50;;;;;;;3.85;71.75;101946.66;5099799;28;20423;-85
2023/04/27 02:29:17;;;;;;;10.02;4.47;;;;;;;3.94;73.26;101966.78;5111476;28;20035;-85
2023/04/27 02:31:42;;;;;;;8.65;4.30;;;;;;;3.92;72.42;101955.44;5121046;27;20431;-85
2023/04/27 02:34:08;;;;;;;7.45;3.95;;;;;;;3.91;71.57;101957.16;5107141;28;20062;-85
2023/04/27 02:36:33;;;;;;;6.10;3.85;;;;;;;3.84;71.90;101944.91;5107691;28;20067;-85
2023/04/27 02:38:58;;;;;;;7.10;4.30;;;;;;;3.87;72.10;101950.19;5102541;28;20028;-85
2023/04/27 02:41:26;;;;;;;10.13;4.72;;;;;;;3.70;72.11;101947.47;5113262;28;20098;-85
2023/04/27 02:43:52;;;;;;;9.35;4.68;;;;;;;3.52;72.65;101944.72;5109871;28;20023;-85
2023/04/27 02:46:17;;;;;;;6.68;4.68;;;;;;;3.24;72.90;101922.75;5104691;28;20072;-85
2023/04/27 02:48:42;;;;;;;8.55;5.10;;;;;;;3.15;73.55;101939.22;5109332;28;20019;-85
2023/04/27 02:51:08;;;;;;;8.60;5.47;;;;;;;3.12;74.23;101947.03;5109270;28;20112;-85
2023/04/27 02:53:33;;;;;;;8.93;5.15;;;;;;;3.13;74.42;101948.81;5105736;28;20073;-85
2023/04/27 02:55:58;;;;;;;9.32;5.00;;;;;;;3.23;74.50;101950.63;5108366;28;20035;-85
2023/04/27 02:58:24;;;;;;;12.07;5.53;;;;;;;3.18;74.51;101949.72;5108347;28;20027;-85
2023/04/27 03:00:54;;;;;;;10.38;4.80;;;;;;;3.32;74.24;101965.50;5107026;28;20023;-85
2023/04/27 03:03:20;;;;;;;9.32;4.80;;;;;;;3.31;73.93;101951.56;5097449;28;20020;-85
2023/04/27 03:05:45;;;;;;;9.90;4.95;;;;;;;3.38;73.33;101949.84;5105971;28;20038;-85
2023/04/27 03:08:11;;;;;;;11.65;5.75;;;;;;;3.36;73.54;101953.31;5100035;28;20058;-85
2023/04/27 03:10:36;;;;;;;12.95;5.63;;;;;;;3.43;74.07;101949.91;5109694;28;20032;-85
2023/04/27 03:13:01;;;;;;;8.43;5.20;;;;;;;3.48;75.61;101953.41;5106895;28;20020;-85
2023/04/27 03:15:26;;;;;;;12.65;5.65;;;;;;;3.43;74.99;101936.81;5109399;28;20126;-85
2023/04/27 03:17:52;;;;;;;11.85;5.80;;;;;;;3.47;75.00;101935.97;5101291;28;20428;-85
2023/04/27 03:20:17;;;;;;;12.38;5.25;;;;;;;3.44;74.54;101939.44;5110737;28;20058;-85
2023/04/27 03:22:44;;;;;;;8.55;5.00;;;;;;;3.46;75.80;101952.53;5100152;28;20037;-85
2023/04/27 03:25:10;;;;;;;10.40;5.43;;;;;;;3.51;73.94;101945.59;5107397;28;20382;-85
2023/04/27 03:27:35;;;;;;;9.45;5.35;;;;;;;3.45;74.47;101948.16;5098872;28;20030;-85
2023/04/27 03:30:02;;;;;;;12.35;5.95;;;;;;;3.43;74.07;101945.53;5104576;28;20464;-85
2023/04/27 03:32:27;;;;;;;8.23;5.50;;;;;;;3.28;74.76;101958.50;5103615;28;20039;-85
2023/04/27 03:34:52;;;;;;;9.35;5.53;;;;;;;3.28;74.93;101959.38;5103119;28;20406;-85
2023/04/27 03:37:18;;;;;;;10.88;6.00;;;;;;;3.28;74.82;101966.34;5105587;28;20119;-85
2023/04/27 03:39:44;;;;;;;10.95;5.43;;;;;;;3.28;75.02;101961.97;5106304;28;20034;-85
2023/04/27 03:42:09;;;;;;;9.82;5.47;;;;;;;3.31;74.82;101971.56;5109541;28;20031;-85
2023/04/27 03:44:35;;;;;;;11.90;5.50;;;;;;;3.31;74.64;101963.72;5103730;28;20483;-85
2023/04/27 03:47:00;;;;;;;10.40;5.68;;;;;;;3.36;74.58;101972.50;5109452;28;20092;-85
2023/04/27 03:49:26;;;;;;;10.63;5.68;;;;;;;3.36;74.59;101969.91;5107453;28;20322;-85
2023/04/27 03:51:52;;;;;;;10.15;5.75;;;;;;;3.40;74.34;101982.09;5125609;27;20113;-85
2023/04/27 03:54:17;;;;;;;10.10;5.07;;;;;;;3.25;74.40;101964.56;5098357;28;21216;-85
2023/04/27 03:56:43;;;;;;;8.35;5.50;;;;;;;3.28;75.56;101975.06;5098241;28;20063;-85
2023/04/27 03:59:09;;;;;;;10.55;5.68;;;;;;;3.27;76.32;101975.06;5104665;28;20449;-85
2023/04/27 04:01:35;;;;;;;9.85;5.18;;;;;;;3.17;76.89;101957.53;5102516;28;20115;-85
2023/04/27 04:04:00;;;;;;;11.35;5.57;;;;;;;3.18;76.96;101964.53;5104471;28;20347;-85
2023/04/27 04:06:26;;;;;;;10.65;5.10;;;;;;;3.26;76.10;101973.28;5105705;28;20549;-85
2023/04/27 04:08:52;;;;;;;10.23;5.38;;;;;;;3.17;76.29;101967.97;5107037;28;20023;-85
2023/04/27 04:11:18;;;;;;;10.82;5.28;;;;;;;3.20;76.40;101968.88;5102924;28;20109;-85
2023/04/27 04:13:43;;;;;;;8.32;5.30;;;;;;;3.25;74.59;101982.84;5103615;28;20487;-85
2023/04/27 04:16:09;;;;;;;13.20;5.07;;;;;;;3.23;75.66;101975.88;5103629;28;20155;-85
2023/04/27 04:18:35;;;;;;;9.98;4.88;;;;;;;3.21;75.68;101977.59;5100734;28;20028;-85
2023/04/27 04:21:01;;;;;;;8.60;5.35;;;;;;;3.22;74.10;101980.25;5107025;28;20513;-85
2023/04/27 04:23:26;;;;;;;11.32;5.72;;;;;;;3.17;75.91;101974.09;5106894;28;20114;-85
2023/04/27 04:25:53;;;;;;;11.23;6.07;;;;;;;3.15;76.50;101973.19;5104858;28;20479;-85
2023/04/27 04:28:18;;;;;;;11.77;5.50;;;;;;;3.25;76.58;101987.22;5106487;28;20471;-85
2023/04/27 04:30:44;;;;;;;12.20;5.68;;;;;;;3.27;76.55;101990.72;5108855;28;20026;-85
2023/04/27 04:33:09;;;;;;;13.77;5.70;;;;;;;3.26;73.91;101988.94;5108047;28;20023;-85
2023/04/27 04:35:38;;;;;;;12.23;5.75;;;;;;;3.24;73.86;101990.69;5108623;28;20035;-85
2023/04/27 04:38:04;;;;;;;11.20;5.47;;;;;;;3.17;73.25;101975.81;5108795;28;20118;-85
2023/04/27 04:40:30;;;;;;;10.43;5.60;;;;;;;3.22;73.11;101992.44;5110458;28;20138;-85
2023/04/27 04:42:55;;;;;;;10.27;6.05;;;;;;;3.23;73.59;101996.78;5109396;28;20023;-85
2023/04/27 04:45:21;;;;;;;9.48;5.60;;;;;;;3.20;73.35;101981.94;5107874;28;20027;-85
2023/04/27 04:47:47;;;;;;;10.30;6.28;;;;;;;3.22;74.70;102008.13;5105821;28;20048;-85
2023/04/27 04:50:13;;;;;;;9.70;5.43;;;;;;;3.15;74.78;102009.78;5109286;28;20115;-85
2023/04/27 04:52:38;;;;;;;9.95;5.07;;;;;;;3.21;75.15;102016.78;5106883;28;20110;-85
2023/04/27 04:55:04;;;;;;;11.55;5.60;;;;;;;3.28;74.37;102013.38;5105832;28;20363;-85
2023/04/27 04:57:30;;;;;;;10.93;6.20;;;;;;;3.27;74.55;102004.66;5098591;28;20016;-85
2023/04/27 04:59:55;;;;;;;12.27;5.55;;;;;;;3.31;74.12;102001.22;5108158;28;20023;-85
2023/04/27 05:02:21;;;;;;;14.40;6.15;;;;;;;3.42;73.98;102011.75;5107367;28;20058;-85
2023/04/27 05:04:46;;;;;;;9.15;5.57;;;;;;;3.47;74.71;102014.41;5108334;28;20031;-85
2023/04/27 05:07:11;;;;;;;12.48;5.72;;;;;;;3.40;74.98;102003.00;5105783;28;20028;-85
2023/04/27 05:09:37;;;;;;;12.60;6.32;;;;;;;3.49;75.20;102010.94;5107286;28;20035;-86
2023/04/27 05:12:03;;;;;;;10.45;5.95;;;;;;;3.56;75.19;102022.31;5108098;28;20066;-85
2023/04/27 05:14:28;;;;;;;10.35;5.43;;;;;;;3.56;75.00;102017.97;5103825;28;20507;-85
2023/04/27 05:16:54;;;;;;;9.68;6.03;;;;;;;3.66;75.11;102021.53;5103906;28;20803;-85
2023/04/27 05:19:19;;;;;;;12.13;6.47;;;;;;;3.70;75.31;102018.06;5101961;28;20032;-85
2023/04/27 05:21:45;;;;;;;12.45;6.38;;;;;;;3.66;75.59;102005.84;5105779;28;20516;-85
2023/04/27 05:24:11;;;;;;;10.02;6.40;;;;;;;3.71;75.81;102009.34;5105294;28;20034;-85
2023/04/27 05:26:37;;;;;;;10.55;6.50;;;;;;;3.77;76.33;102011.13;5107930;28;20051;-85
2023/04/27 05:29:03;;;;;;;10.73;6.07;;;;;;;3.79;76.47;102007.66;5107930;28;20036;-85
2023/04/27 05:31:28;;;;;;;14.15;6.95;;;;;;;3.82;76.90;102025.09;5106973;28;20046;-85
2023/04/27 05:33:54;;;;;;;11.07;6.10;;;;;;;3.83;76.78;102021.66;5106269;28;20027;-85
2023/04/27 05:36:19;;;;;;;16.98;7.25;;;;;;;3.90;76.85;102010.34;5107320;28;20026;-85
2023/04/27 05:38:44;;;;;;;12.52;6.25;;;;;;;3.97;76.97;102006.03;5102602;28;20036;-85
2023/04/27 05:41:10;;;;;;;13.63;6.95;;;;;;;4.11;77.05;102019.19;5107027;28;20028;-85
2023/04/27 05:43:37;;;;;;;10.70;6.13;;;;;;;4.11;76.78;102021.81;5116989;27;20023;-85
2023/04/27 05:46:03;;;;;;;14.63;6.55;;;;;;;4.22;75.93;102030.59;5105820;28;20034;-85
2023/04/27 05:48:28;;;;;;;13.82;6.70;;;;;;;4.23;76.32;102024.47;5103391;28;20032;-85
2023/04/27 05:51:02;;;;;;;17.98;7.18;;;;;;;4.38;77.37;102028.91;5106583;28;20038;-85
2023/04/27 05:53:28;;;;;;;11.57;6.55;;;;;;;4.46;77.19;102033.31;5109405;28;20023;-85
2023/04/27 05:55:55;;;;;;;15.95;6.82;;;;;;;4.49;76.64;102032.47;5105934;28;20076;-85
2023/04/27 05:58:20;;;;;;;13.38;6.68;;;;;;;4.56;75.39;102035.09;5108201;28;20023;-85
2023/04/27 06:00:46;;;;;;;12.75;6.45;;;;;;;4.61;74.89;102030.75;5103909;28;20027;-85
2023/04/27 06:03:11;;;;;;;14.50;6.85;;;;;;;4.68;75.65;102026.41;5107867;28;20030;-85
2023/04/27 06:05:36;;;;;;;13.30;6.28;;;;;;;4.74;75.11;102025.56;5109397;28;20026;-85
2023/04/27 06:08:02;;;;;;;11.07;6.07;;;;;;;4.77;75.06;102029.06;5111265;28;20023;-85
2023/04/27 06:10:27;;;;;;;10.85;6.28;;;;;;;4.84;73.60;102022.09;5110284;28;20031;-85
2023/04/27 06:12:53;;;;;;;16.40;6.13;;;;;;;4.93;73.02;102029.97;5110396;28;20514;-85
2023/04/27 06:15:18;;;;;;;9.30;4.88;;;;;;;5.02;72.63;102030.00;5110633;28;20393;-85
2023/04/27 06:17:44;;;;;;;8.82;5.60;;;;;;;5.14;73.07;102037.00;5112766;28;20045;-85
2023/04/27 06:20:10;;;;;;;9.70;6.03;;;;;;;5.29;72.54;102033.53;5104331;28;20015;-85
2023/04/27 06:22:36;;;;;;;12.27;5.18;;;;;;;5.41;72.16;102036.16;5110109;28;20035;-85
2023/04/27 06:25:02;;;;;;;11.18;5.25;;;;;;;5.50;72.07;102009.94;5111099;28;20452;-85
2023/04/27 06:27:28;;;;;;;8.15;5.15;;;;;;;5.67;70.50;102022.16;5110576;28;20022;-85
2023/04/27 06:29:53;;;;;;;8.15;4.82;;;;;;;5.85;70.25;102033.50;5111088;28;20102;-85
2023/04/27 06:32:19;;;;;;;9.75;4.93;;;;;;;5.97;69.88;102009.03;5109121;28;20023;-85
2023/04/27 06:34:48;;;;;;;8.27;4.40;;;;;;;6.16;68.26;102030.00;5107954;28;20023;-85
2023/04/27 06:37:15;;;;;;;8.80;4.22;;;;;;;6.32;68.75;102026.41;5095298;28;20505;-85
2023/04/27 06:39:40;;;;;;;8.63;4.05;;;;;;;6.47;67.18;102036.00;5109810;28;20027;-85
2023/04/27 06:42:06;;;;;;;6.15;4.07;;;;;;;6.61;67.34;102021.03;5111277;28;20476;-85
2023/04/27 06:44:31;;;;;;;9.95;4.68;;;;;;;6.81;66.70;102021.81;5111793;28;20470;-85
2023/04/27 06:46:56;;;;;;;8.57;4.65;;;;;;;7.03;66.24;102027.81;5107796;28;20077;-85
2023/04/27 06:49:21;;;;;;;9.70;5.15;;;;;;;7.16;64.08;102023.34;5110873;28;20435;-85
2023/04/27 06:51:48;;;;;;;8.10;4.57;;;;;;;7.20;63.36;102009.28;5110400;28;20027;-85
2023/04/27 06:54:13;;;;;;;8.98;4.63;;;;;;;7.46;64.15;102021.34;5104519;28;20443;-85
2023/04/27 06:56:38;;;;;;;11.05;5.25;;;;;;;7.44;63.75;102007.34;5105101;28;20053;-85
2023/04/27 06:59:04;;;;;;;10.25;4.85;;;;;;;7.55;61.71;102021.28;5104464;28;20036;-85
2023/04/27 07:01:29;;;;;;;11.15;5.68;;;;;;;7.56;63.15;102010.75;5105890;28;20465;-85
2023/04/27 07:03:56;;;;;;;7.95;4.78;;;;;;;7.63;61.84;102012.44;5104953;28;20077;-85
2023/04/27 07:06:21;;;;;;;8.48;5.20;;;;;;;7.97;61.36;102020.00;5101645;28;20019;-85
2023/04/27 07:08:47;;;;;;;9.20;5.55;;;;;;;8.11;62.60;102019.84;5101526;28;20028;-85
2023/04/27 07:11:12;;;;;;;9.10;5.15;;;;;;;8.30;63.35;102007.34;5111949;28;20102;-85
2023/04/27 07:13:37;;;;;;;9.52;4.75;;;;;;;8.41;61.27;102010.75;5111044;28;20024;-85
2023/04/27 07:16:03;;;;;;;9.57;4.65;;;;;;;8.61;59.34;102013.13;5112552;28;20060;-85
2023/04/27 07:18:28;;;;;;;9.65;5.30;;;;;;;8.77;59.80;102013.81;5102568;28;20015;-86
2023/04/27 07:20:54;;;;;;;12.25;5.97;;;;;;;8.83;60.44;102016.34;5105383;28;20072;-85
2023/04/27 07:23:19;;;;;;;10.20;5.75;;;;;;;9.10;59.66;102018.59;5103298;28;20493;-86
2023/04/27 07:25:45;;;;;;;9.95;6.15;;;;;;;9.25;59.38;102011.34;5104433;28;20027;-85
2023/04/27 07:28:11;;;;;;;13.40;6.05;;;;;;;9.27;58.52;102015.69;5109512;28;20115;-86
2023/04/27 07:30:37;;;;;;;10.32;5.63;;;;;;;9.14;57.87;102008.88;5096023;28;20040;-86
2023/04/27 07:33:03;;;;;;;10.70;5.63;;;;;;;9.39;59.21;102019.91;5108400;28;21912;-86
2023/04/27 07:35:29;;;;;;;13.13;5.50;;;;;;;9.59;58.37;102012.50;5104057;28;20100;-86
2023/04/27 07:37:55;;;;;;;9.77;5.28;;;;;;;9.84;56.23;102015.59;5122612;27;20490;-86
2023/04/27 07:40:23;;;;;;;12.55;5.47;;;;;;;9.88;56.69;102014.63;5111799;28;20039;-87
2023/04/27 07:42:49;;;;;;;9.27;6.35;;;;;;;10.23;56.62;102023.66;5109766;28;20127;-86
2023/04/27 07:45:17;;;;;;;10.88;5.57;;;;;;;10.52;55.19;102016.94;5101860;28;20490;-87
2023/04/27 07:47:43;;;;;;;13.07;6.40;;;;;;;10.92;56.29;102014.31;5108262;28;20424;-87
2023/04/27 07:50:09;;;;;;;11.32;5.70;;;;;;;11.46;54.38;102013.88;5110005;28;20028;-87
2023/04/27 07:52:36;;;;;;;16.67;7.85;;;;;;;11.78;51.19;102022.78;5110127;28;20027;-87
2023/04/27 07:55:02;;;;;;;14.07;5.15;;;;;;;12.20;49.60;102002.22;5107662;28;20478;-87
2023/04/27 07:57:27;;;;;;;10.43;5.60;;;;;;;12.35;50.54;102012.38;5105705;28;20027;-87
2023/04/27 07:59:52;;;;;;;11.30;5.40;;;;;;;12.69;50.53;102014.94;5104482;28;20378;-86
2023/04/27 08:02:18;;;;;;;8.10;4.80;;;;;;;13.18;46.10;102002.75;5115114;28;20034;-87
2023/04/27 08:04:43;;;;;;;7.07;4.72;;;;;;;13.15;47.37;102009.94;5106968;28;20030;-87
2023/04/27 08:07:08;;;;;;;11.13;4.50;;;;;;;13.25;46.15;102001.69;5109109;28;20019;-86
2023/04/27 08:09:33;;;;;;;10.93;4.85;;;;;;;13.00;47.69;102011.31;5104829;28;20073;-87
2023/04/27 08:11:59;;;;;;;9.90;5.00;;;;;;;12.88;47.13;102001.97;5111567;28;20031;-87
2023/04/27 08:14:24;;;;;;;10.00;4.25;;;;;;;12.50;46.18;102005.78;5123635;27;20512;-87
2023/04/27 08:16:50;;;;;;;9.88;5.03;;;;;;;12.92;47.67;101997.44;5097896;28;20089;-87
2023/04/27 08:19:17;;;;;;;9.98;4.78;;;;;;;13.51;47.24;102014.09;5104168;28;20083;-87
2023/04/27 08:21:42;;;;;;;7.10;4.68;;;;;;;13.76;46.79;102021.25;5107429;28;20481;-87
2023/04/27 08:24:07;;;;;;;6.97;4.30;;;;;;;14.19;45.70;102022.38;5103782;28;20024;-92
2023/04/27 08:26:34;;;;;;;7.78;4.22;;;;;;;14.69;42.35;102014.34;5104490;28;20080;-88
2023/04/27 08:28:59;;;;;;;7.95;4.57;;;;;;;14.47;42.06;102001.81;5106952;28;20051;-88
2023/04/27 08:31:25;;;;;;;8.25;4.43;;;;;;;13.98;41.98;102013.38;5102957;28;20122;-87
2023/04/27 08:33:51;;;;;;;5.70;3.60;;;;;;;14.24;40.52;102000.00;5099108;28;20069;-88
2023/04/27 08:36:23;;;;;;;4.65;3.05;;;;;;;14.15;41.71;101989.72;5106862;28;20038;-88
2023/04/27 08:38:49;;;;;;;7.35;4.10;;;;;;;14.69;41.78;101983.25;5107150;28;20078;-88
2023/04/27 08:41:22;;;;;;;6.97;4.50;;;;;;;14.94;41.32;101987.63;5104148;28;20087;-88
2023/04/27 08:43:48;;;;;;;7.70;4.22;;;;;;;14.95;40.63;101981.34;5104721;28;20028;-88
2023/04/27 08:46:20;;;;;;;5.78;3.55;;;;;;;15.01;39.33;101971.34;5108215;28;20027;-89
2023/04/27 08:48:46;;;;;;;5.47;3.50;;;;;;;15.19;41.81;101977.69;5105952;28;20011;-88
2023/04/27 08:51:14;;;;;;;6.20;3.08;;;;;;;15.29;38.63;101970.16;5106083;28;20028;-88
2023/04/27 08:53:49;;;;;;;7.15;3.60;;;;;;;15.75;38.14;101982.44;5109445;28;20050;-88
2023/04/27 08:56:14;;;;;;;7.00;3.83;;;;;;;16.16;35.77;101977.06;5100996;28;20295;-87
2023/04/27 08:58:40;;;;;;;4.72;3.25;;;;;;;16.56;39.15;101981.44;5102149;28;20072;-88
2023/04/27 09:01:07;;;;;;;6.68;3.38;;;;;;;16.69;33.19;101973.69;5103176;28;20031;-88
2023/04/27 09:03:33;;;;;;;4.75;3.35;;;;;;;16.81;37.50;101983.84;4641239;28;20545;-88
2023/04/27 09:06:05;;;;;;;9.00;4.28;;;;;;;17.25;34.10;101978.16;5101282;28;20019;-87
2023/04/27 09:08:41;;;;;;;8.25;3.70;;;;;;;17.57;35.13;101983.66;5106479;27;20062;-88
2023/04/27 09:11:06;;;;;;;5.95;3.03;;;;;;;17.68;31.79;101978.63;5110183;28;20028;-88
2023/04/27 09:13:36;;;;;;;7.30;3.58;;;;;;;17.33;33.61;101985.75;5106986;28;20049;-88
2023/04/27 09:16:01;;;;;;;5.88;3.55;;;;;;;17.46;35.72;101984.19;5106077;28;20031;-87
2023/04/27 09:18:27;;;;;;;5.38;3.53;;;;;;;17.75;35.28;101974.72;5099002;28;20024;-87
2023/04/27 09:20:52;;;;;;;5.95;3.40;;;;;;;18.24;35.26;101980.13;5107676;28;20023;-88
2023/04/27 09:23:27;;;;;;;6.93;3.97;;;;;;;18.72;33.85;101980.22;5109554;28;20035;-88
2023/04/27 09:25:57;;;;;;;5.60;3.67;;;;;;;18.55;31.63;101984.66;5105004;28;20024;-88
2023/04/27 09:28:24;;;;;;;5.25;3.78;;;;;;;18.84;30.96;101983.09;5102742;28;20041;-88
2023/04/27 09:30:52;;;;;;;8.00;4.40;;;;;;;19.11;32.35;101972.56;5099568;28;20036;-87
2023/04/27 09:33:23;;;;;;;8.93;4.70;;;;;;;19.18;32.90;101966.88;5103913;28;20489;-89
2023/04/27 09:35:49;;;;;;;5.10;4.03;;;;;;;18.99;32.32;101961.72;5101505;28;20360;-88
2023/04/27 09:38:17;;;;;;;10.20;3.95;;;;;;;18.35;29.35;101961.66;5106933;28;20039;-88
2023/04/27 09:40:43;;;;;;;6.10;4.40;;;;;;;16.93;32.86;101965.50;5083614;28;20131;-89
2023/04/27 09:43:09;;;;;;;6.07;4.22;;;;;;;17.45;35.39;101963.75;5104466;28;20111;-89
2023/04/27 09:45:36;;;;;;;7.15;4.63;;;;;;;17.93;34.47;101964.00;5102833;28;20794;-88
2023/04/27 09:48:03;;;;;;;8.57;4.80;;;;;;;18.27;36.11;101963.88;5105746;28;20024;-89
2023/04/27 09:50:29;;;;;;;4.65;3.83;;;;;;;18.65;33.76;101960.91;5098800;28;20031;-88
2023/04/27 09:52:56;;;;;;;7.72;4.55;;;;;;;18.72;31.33;101958.78;5109278;28;20100;-88
2023/04/27 09:55:36;;;;;;;6.03;3.92;;;;;;;18.82;33.05;101958.19;5100423;28;20111;-88
2023/04/27 09:58:31;;;;;;;6.05;4.43;;;;;;;18.93;33.96;101954.91;5118838;28;20019;-88
2023/04/27 10:01:09;;;;;;;8.25;4.10;;;;;;;18.35;32.03;101958.13;5104948;28;20023;-88
2023/04/27 10:04:13;;;;;;;6.65;4.40;;;;;;;18.28;34.25;101956.75;5107166;28;20027;-88
2023/04/27 10:06:56;;;;;;;8.25;4.30;;;;;;;18.57;32.35;101963.16;5103950;28;20024;-88
2023/04/27 10:09:22;;;;;;;5.30;4.15;;;;;;;18.33;33.49;101943.97;5098607;28;20036;-89
2023/04/27 10:11:49;;;;;;;7.20;4.30;;;;;;;18.44;31.36;101949.59;5104676;28;20062;-88
2023/04/27 10:14:17;;;;;;;6.03;4.90;;;;;;;18.36;30.62;101949.13;5105201;28;20030;-88
2023/04/27 10:16:50;;;;;;;5.22;4.47;;;;;;;18.33;32.08;101935.94;5106288;28;20022;-88
2023/04/27 10:19:16;;;;;;;8.65;4.95;;;;;;;18.52;32.73;101938.47;5108459;28;20032;-89
2023/04/27 10:21:53;;;;;;;8.90;4.70;;;;;;;18.41;33.10;101954.25;5103820;28;20035;-89
2023/04/27 10:24:30;;;;;;;4.57;4.00;;;;;;;18.43;32.82;101963.06;5102007;28;20070;-88
2023/04/27 10:27:02;;;;;;;7.90;4.57;;;;;;;18.35;32.92;101956.31;5106848;28;20028;-88
2023/04/27 10:29:34;;;;;;;7.18;4.00;;;;;;;18.61;33.25;101956.69;5106197;28;20110;-88
2023/04/27 10:32:05;;;;;;;6.50;4.22;;;;;;;18.93;31.45;101964.72;5108205;28;20027;-89
2023/04/27 10:34:35;;;;;;;6.07;4.10;;;;;;;18.97;30.80;101950.22;5100872;28;20350;-89
2023/04/27 10:37:06;;;;;;;7.53;4.65;;;;;;;19.31;32.16;101949.13;5107016;28;20457;-89
2023/04/27 10:39:37;;;;;;;6.70;4.50;;;;;;;19.24;29.45;101943.25;5105560;28;20028;-89
2023/04/27 10:42:03;;;;;;;9.52;4.93;;;;;;;19.26;28.52;101949.41;5103702;28;20346;-89
2023/04/27 10:44:30;;;;;;;5.22;3.90;;;;;;;19.05;27.44;101946.13;4660014;28;20502;-88
2023/04/27 10:46:58;;;;;;;7.53;4.30;;;;;;;18.64;30.22;101945.78;5105980;28;20023;-89
2023/04/27 10:49:26;;;;;;;8.02;4.35;;;;;;;18.42;29.44;101948.81;5101347;28;20035;-89
2023/04/27 10:51:51;;;;;;;6.70;4.65;;;;;;;17.66;30.37;101931.50;5104843;28;20027;-88
2023/04/27 10:54:17;;;;;;;8.27;5.05;;;;;;;17.75;31.79;101929.22;5104398;28;20047;-88
2023/04/27 10:56:43;;;;;;;7.53;5.03;;;;;;;18.08;30.00;101937.25;5109241;28;20912;-88
2023/04/27 10:59:09;;;;;;;9.60;5.43;;;;;;;18.86;32.56;101938.28;5107893;28;20118;-89
2023/04/27 11:01:35;;;;;;;8.50;4.95;;;;;;;19.32;29.96;101922.22;5104304;28;20161;-89
2023/04/27 11:04:02;;;;;;;6.63;4.97;;;;;;;19.90;30.13;101927.69;5105054;28;20621;-90
2023/04/27 11:06:29;;;;;;;8.95;4.47;;;;;;;20.31;30.34;101915.19;5103750;27;20564;-89
2023/04/27 11:08:55;;;;;;;8.00;5.22;;;;;;;20.44;29.41;101911.75;5103987;28;20082;-90
2023/04/27 11:11:21;;;;;;;7.00;4.78;;;;;;;20.87;28.11;101904.44;5101962;28;20162;-90
2023/04/27 11:13:48;;;;;;;8.20;5.30;;;;;;;20.64;29.38;101911.31;5102342;28;20684;-89
2023/04/27 11:16:14;;;;;;;9.40;5.53;;;;;;;20.46;27.05;101901.75;5107099;28;20070;-90
2023/04/27 11:18:39;;;;;;;7.47;5.25;;;;;;;20.61;27.47;101898.09;5103944;28;20035;-90
2023/04/27 11:21:09;;;;;;;8.30;4.90;;;;;;;20.95;28.21;101893.19;5101865;28;20024;-90
2023/04/27 11:23:38;;;;;;;8.45;5.05;;;;;;;21.16;27.34;101891.72;5105833;28;20060;-90
2023/04/27 11:26:16;;;;;;;7.07;5.32;;;;;;;21.30;27.11;101897.00;5097898;28;20583;-90